Time;durP1;ratioP1;P1;durP2;ratioP2;P2;SDS_P1;SDS_P2;PMS_P1;PMS_P2;Temp;Humidity;BMP_temperature;BMP_pressure;BME280_temperature;BME280_humidity;BME280_pressure;Samples;Min_cycle;Max_cycle;Signal;HPM_P1;HPM_P2
2023/01/01 00:01:56;;;;;;;11.27;3.77;;;;;;;15.65;67.82;100605.09;5043437;28;20236;-75
2023/01/01 00:04:22;;;;;;;7.43;3.50;;;;;;;15.70;66.95;100599.00;5044025;28;20272;-75
2023/01/01 00:06:47;;;;;;;9.73;3.80;;;;;;;15.79;66.14;100595.53;5041887;28;20824;-75
2023/01/01 00:11:56;;;;;;;13.00;3.70;;;;;;;15.61;68.33;100593.06;5040853;28;20224;-76
2023/01/01 00:14:22;;;;;;;9.67;3.63;;;;;;;15.66;66.97;100599.88;5042042;28;20185;-76
2023/01/01 00:16:48;;;;;;;9.87;3.93;;;;;;;15.77;66.91;100607.56;5038525;28;20200;-76
2023/01/01 00:19:13;;;;;;;8.07;3.87;;;;;;;15.69;67.30;100606.75;5042743;28;20222;-76
2023/01/01 00:21:39;;;;;;;9.77;3.57;;;;;;;15.60;68.00;100618.00;5042403;28;20185;-75
2023/01/01 00:24:05;;;;;;;9.07;3.53;;;;;;;15.61;68.08;100621.44;5045696;28;20182;-75
2023/01/01 00:26:31;;;;;;;15.90;4.17;;;;;;;15.67;67.22;100616.25;5041774;28;20271;-75
2023/01/01 00:28:56;;;;;;;7.97;3.47;;;;;;;15.70;67.24;100608.50;5028209;28;20209;-75
2023/01/01 00:31:22;;;;;;;12.20;3.90;;;;;;;15.72;66.96;100619.66;5042326;28;20667;-75
2023/01/01 00:33:52;;;;;;;10.57;3.40;;;;;;;15.71;66.60;100613.63;5040457;28;20930;-75
2023/01/01 00:36:20;;;;;;;7.60;3.50;;;;;;;15.64;68.17;100619.69;5047376;28;20212;-75
2023/01/01 00:38:46;;;;;;;11.87;3.20;;;;;;;15.72;66.50;100619.66;5042949;28;20683;-75
2023/01/01 00:41:13;;;;;;;11.27;3.97;;;;;;;15.72;66.42;100617.06;5044141;28;20229;-76
2023/01/01 00:43:39;;;;;;;9.43;3.60;;;;;;;15.73;66.37;100617.06;5050748;28;20185;-75
2023/01/01 00:46:09;;;;;;;10.40;3.37;;;;;;;15.86;65.74;100616.16;5049636;28;20273;-75
2023/01/01 00:48:35;;;;;;;8.67;3.30;;;;;;;15.82;66.16;100613.56;5032167;28;20233;-75
2023/01/01 00:51:01;;;;;;;10.27;3.60;;;;;;;15.85;65.42;100619.59;5054858;28;20221;-75
2023/01/01 00:53:26;;;;;;;13.93;4.37;;;;;;;15.77;66.90;100617.91;5048742;28;20219;-74
2023/01/01 00:55:53;;;;;;;6.20;3.40;;;;;;;15.74;66.72;100621.38;5051506;28;20181;-74
2023/01/01 00:58:19;;;;;;;9.27;3.97;;;;;;;15.78;66.29;100624.78;5047022;28;20234;-74
2023/01/01 01:00:45;;;;;;;13.20;3.83;;;;;;;15.77;66.40;100621.34;5043753;28;20751;-75
2023/01/01 01:03:26;;;;;;;10.77;3.77;;;;;;;15.82;66.50;100623.91;5042117;28;20664;-75
2023/01/01 01:06:00;;;;;;;12.33;4.00;;;;;;;15.71;67.48;100641.19;5047053;28;20202;-75
2023/01/01 01:08:27;;;;;;;12.13;4.20;;;;;;;15.88;64.97;100624.72;5028254;28;20247;-75
2023/01/01 01:10:53;;;;;;;10.60;4.07;;;;;;;15.85;65.46;100629.06;5045325;28;20585;-75
2023/01/01 01:13:19;;;;;;;15.20;3.97;;;;;;;15.81;66.02;100651.47;5048502;28;20259;-75
2023/01/01 01:15:45;;;;;;;10.13;4.13;;;;;;;15.84;65.62;100638.53;5046551;28;20658;-75
2023/01/01 01:18:11;;;;;;;11.27;4.07;;;;;;;15.89;65.23;100639.34;5046564;28;20610;-75
2023/01/01 01:20:36;;;;;;;10.50;3.90;;;;;;;15.79;66.68;100624.78;5046171;28;20249;-75
2023/01/01 01:23:02;;;;;;;9.93;3.40;;;;;;;15.88;65.26;100631.63;5049393;28;20195;-74
2023/01/01 01:25:27;;;;;;;9.60;3.97;;;;;;;15.95;64.27;100630.72;5048865;28;20213;-74
2023/01/01 01:27:53;;;;;;;9.43;3.80;;;;;;;15.94;64.77;100627.25;5051564;28;20210;-74
2023/01/01 01:30:18;;;;;;;9.87;3.87;;;;;;;15.91;64.96;100632.47;5047968;28;20722;-75
2023/01/01 01:32:44;;;;;;;12.33;3.67;;;;;;;15.90;65.04;100611.81;5031764;28;20190;-75
2023/01/01 01:35:09;;;;;;;9.97;4.37;;;;;;;15.96;64.36;100635.88;5046947;28;20587;-75
2023/01/01 01:37:35;;;;;;;9.90;3.77;;;;;;;15.86;65.89;100633.34;5049274;28;20737;-75
2023/01/01 01:40:00;;;;;;;11.50;3.87;;;;;;;15.86;66.36;100644.56;5044510;28;20582;-75
2023/01/01 01:42:25;;;;;;;12.83;3.90;;;;;;;15.83;65.59;100651.44;5048543;28;20202;-75
2023/01/01 01:44:55;;;;;;;11.43;4.23;;;;;;;15.80;66.26;100660.06;5028387;28;20208;-75
2023/01/01 01:47:29;;;;;;;9.57;4.33;;;;;;;15.81;66.80;100660.94;5044818;28;20263;-75
2023/01/01 01:50:01;;;;;;;14.33;4.27;;;;;;;15.80;65.51;100661.81;5044637;28;20749;-75
2023/01/01 01:52:29;;;;;;;12.47;4.23;;;;;;;15.80;65.66;100659.22;5048337;28;20675;-75
2023/01/01 01:54:54;;;;;;;14.33;4.63;;;;;;;15.92;64.25;100667.75;5041518;28;20191;-75
2023/01/01 01:57:21;;;;;;;12.60;4.40;;;;;;;15.88;64.79;100652.31;5045801;28;20193;-75
2023/01/01 01:59:52;;;;;;;14.33;5.20;;;;;;;15.83;64.63;100644.56;5029190;28;20344;-75
2023/01/01 02:02:37;;;;;;;10.07;4.13;;;;;;;15.91;64.59;100657.44;5044981;28;20191;-75
2023/01/01 02:05:04;;;;;;;10.43;4.07;;;;;;;15.94;64.10;100649.69;5029506;28;20217;-75
2023/01/01 02:07:32;;;;;;;11.13;5.20;;;;;;;15.94;64.22;100653.09;5028717;28;20217;-75
2023/01/01 02:09:59;;;;;;;15.57;5.17;;;;;;;15.92;64.28;100647.09;5028899;28;20229;-75
2023/01/01 02:12:25;;;;;;;11.33;4.90;;;;;;;15.84;64.97;100658.34;5045960;28;20262;-75
2023/01/01 02:14:51;;;;;;;11.00;4.20;;;;;;;15.96;64.54;100671.19;5049632;28;20277;-75
2023/01/01 02:17:45;;;;;;;11.30;4.40;;;;;;;15.88;64.91;100665.22;5046816;28;20331;-75
2023/01/01 02:20:11;;;;;;;10.80;4.07;;;;;;;15.88;64.82;100666.06;5042540;28;20300;-75
2023/01/01 02:22:53;;;;;;;11.77;4.00;;;;;;;15.99;63.84;100671.16;5049175;28;20291;-75
2023/01/01 02:25:24;;;;;;;9.93;4.27;;;;;;;16.01;63.87;100670.28;5042237;28;20181;-74
2023/01/01 02:28:11;;;;;;;10.23;4.07;;;;;;;15.97;63.71;100678.09;5047955;28;20214;-75
2023/01/01 02:30:40;;;;;;;10.53;4.50;;;;;;;15.96;64.41;100672.03;5045351;28;20225;-75
2023/01/01 02:33:14;;;;;;;11.80;4.10;;;;;;;15.93;64.55;100663.47;5043476;28;20200;-75
2023/01/01 02:35:44;;;;;;;13.17;3.80;;;;;;;15.95;64.24;100678.09;5047687;28;20603;-75
2023/01/01 02:38:16;;;;;;;11.17;4.03;;;;;;;16.00;63.68;100678.03;5027616;28;20186;-75
2023/01/01 02:40:46;;;;;;;9.80;4.53;;;;;;;15.90;64.71;100685.00;5040641;28;20620;-75
2023/01/01 02:43:12;;;;;;;10.67;4.13;;;;;;;15.85;65.00;100691.91;5041804;28;20384;-75
2023/01/01 02:45:37;;;;;;;10.73;4.10;;;;;;;15.84;65.34;100684.16;5041739;28;20299;-75
2023/01/01 02:48:42;;;;;;;9.57;3.80;;;;;;;15.88;64.57;100694.47;5028738;28;20649;-75
2023/01/01 02:51:19;;;;;;;9.30;3.90;;;;;;;15.82;65.61;100686.75;5037801;28;20214;-75
2023/01/01 02:54:09;;;;;;;9.03;3.80;;;;;;;15.79;66.11;100706.56;5044183;28;20197;-75
2023/01/01 02:56:53;;;;;;;10.70;4.27;;;;;;;15.74;66.68;100708.31;5024710;28;20201;-75
2023/01/01 03:02:56;;;;;;;14.50;4.50;;;;;;;15.60;68.49;100723.84;5040572;28;20197;-74
2023/01/01 03:09:02;;;;;;;9.30;4.17;;;;;;;15.44;71.14;100729.03;5041257;28;20229;-75
2023/01/01 03:11:54;;;;;;;6.63;4.30;;;;;;;15.43;72.46;100724.75;5025316;28;20563;-75
2023/01/01 03:14:23;;;;;;;11.97;4.40;;;;;;;15.31;73.88;100720.44;5043162;28;20213;-75
2023/01/01 03:17:05;;;;;;;9.37;4.00;;;;;;;15.35;71.91;100714.44;5046190;28;20194;-75
2023/01/01 03:19:36;;;;;;;10.13;3.87;;;;;;;15.34;72.70;100719.59;5024812;28;20225;-75
2023/01/01 03:22:19;;;;;;;11.80;4.43;;;;;;;15.33;72.32;100720.44;5048740;28;20643;-74
2023/01/01 03:24:50;;;;;;;11.83;4.13;;;;;;;15.33;72.33;100720.44;5043639;28;20238;-74
2023/01/01 03:27:22;;;;;;;8.27;4.30;;;;;;;15.30;72.86;100720.44;5041582;28;20771;-74
2023/01/01 03:29:51;;;;;;;10.70;4.30;;;;;;;15.27;73.42;100730.75;5045934;28;20217;-74
2023/01/01 03:32:22;;;;;;;10.53;4.40;;;;;;;15.15;74.22;100716.13;5041773;28;20185;-74
2023/01/01 03:34:54;;;;;;;12.67;4.33;;;;;;;15.10;73.95;100723.03;5044664;28;20189;-74
2023/01/01 03:37:26;;;;;;;12.37;4.30;;;;;;;15.11;74.31;100722.16;5048728;28;20194;-74
2023/01/01 03:39:56;;;;;;;8.83;4.27;;;;;;;15.08;74.23;100722.19;5044511;28;20336;-75
2023/01/01 03:42:36;;;;;;;10.20;3.90;;;;;;;15.04;74.56;100730.78;5043789;28;20814;-74
2023/01/01 03:45:05;;;;;;;8.10;3.90;;;;;;;15.05;74.63;100716.19;5026371;28;20209;-75
2023/01/01 03:47:31;;;;;;;8.43;4.13;;;;;;;15.02;74.68;100724.78;5042921;28;20300;-75
2023/01/01 03:49:57;;;;;;;9.93;4.33;;;;;;;15.04;74.34;100730.78;5040917;28;20320;-74
2023/01/01 03:52:29;;;;;;;9.90;4.07;;;;;;;15.30;72.22;100741.06;5043950;28;20240;-76
2023/01/01 03:55:07;;;;;;;8.93;4.33;;;;;;;15.21;73.88;100752.28;5043296;28;20237;-74
2023/01/01 03:57:57;;;;;;;7.90;4.03;;;;;;;15.14;74.21;100742.81;5041543;28;20647;-75
2023/01/01 04:00:27;;;;;;;10.33;4.47;;;;;;;15.03;75.64;100757.44;5044065;28;20675;-75
2023/01/01 04:03:04;;;;;;;7.80;4.07;;;;;;;14.95;76.42;100754.00;5042068;28;20200;-75
2023/01/01 04:05:34;;;;;;;9.97;4.30;;;;;;;14.98;75.98;100745.41;5045317;28;20208;-75
2023/01/01 04:08:01;;;;;;;11.53;4.80;;;;;;;14.92;76.40;100750.56;5052342;28;20236;-74
2023/01/01 04:10:30;;;;;;;11.13;4.87;;;;;;;14.94;76.03;100756.56;5048344;28;20223;-74
2023/01/01 04:12:56;;;;;;;11.07;4.87;;;;;;;15.04;74.79;100747.97;5032864;28;20221;-75
2023/01/01 04:15:25;;;;;;;9.90;5.00;;;;;;;15.01;74.88;100740.25;5029162;28;20285;-74
2023/01/01 04:17:51;;;;;;;13.60;4.80;;;;;;;15.02;75.37;100755.72;5048534;28;20243;-75
2023/01/01 04:20:17;;;;;;;9.90;4.40;;;;;;;14.98;74.81;100754.00;5044220;28;20787;-75
2023/01/01 04:22:42;;;;;;;10.87;4.53;;;;;;;14.98;75.13;100748.84;5042351;28;20651;-75
2023/01/01 04:25:09;;;;;;;6.23;4.23;;;;;;;15.00;75.04;100760.00;5044393;28;20190;-75
2023/01/01 04:27:35;;;;;;;13.27;5.07;;;;;;;15.01;74.06;100756.56;5050841;28;20267;-75
2023/01/01 04:30:01;;;;;;;9.70;4.80;;;;;;;14.98;74.38;100750.56;5039925;28;20218;-76
2023/01/01 04:32:28;;;;;;;11.77;5.00;;;;;;;15.00;74.39;100751.41;5043022;28;20204;-75
2023/01/01 04:34:54;;;;;;;10.50;4.60;;;;;;;15.03;72.91;100747.13;5045163;28;20190;-75
2023/01/01 04:37:20;;;;;;;11.63;4.93;;;;;;;15.05;73.32;100739.38;5045295;28;20740;-76
2023/01/01 04:39:45;;;;;;;10.70;5.03;;;;;;;15.00;73.17;100741.09;5042402;28;20636;-75
2023/01/01 04:42:11;;;;;;;11.77;4.77;;;;;;;15.12;72.06;100751.41;5050061;28;20194;-75
2023/01/01 04:44:36;;;;;;;10.83;5.30;;;;;;;15.08;71.99;100755.72;5031540;28;20193;-75
2023/01/01 04:47:02;;;;;;;8.73;4.23;;;;;;;15.13;71.28;100743.66;5046799;28;20193;-75
2023/01/01 04:49:28;;;;;;;9.27;4.33;;;;;;;15.24;70.51;100747.09;5044407;28;20275;-75
2023/01/01 04:51:53;;;;;;;10.77;4.53;;;;;;;15.23;70.27;100763.44;5046454;28;20193;-74
2023/01/01 04:54:19;;;;;;;8.47;4.23;;;;;;;15.20;71.25;100757.44;5045102;28;20875;-75
2023/01/01 04:56:44;;;;;;;8.77;4.20;;;;;;;15.19;70.30;100751.41;5048371;28;20200;-75
2023/01/01 04:59:09;;;;;;;10.70;4.80;;;;;;;15.20;70.25;100757.44;5048638;28;20189;-75
2023/01/01 05:01:35;;;;;;;7.67;4.27;;;;;;;15.19;70.13;100760.88;5045402;28;20595;-74
2023/01/01 05:04:00;;;;;;;9.40;4.53;;;;;;;15.22;70.21;100760.84;5048640;28;20664;-75
2023/01/01 05:06:27;;;;;;;12.87;4.37;;;;;;;15.20;70.09;100765.16;5048336;28;20205;-75
2023/01/01 05:08:54;;;;;;;6.50;4.30;;;;;;;15.18;70.61;100764.28;5046844;28;20297;-75
2023/01/01 05:11:25;;;;;;;10.53;4.30;;;;;;;15.17;69.56;100760.00;5048471;28;20304;-75
2023/01/01 05:13:53;;;;;;;8.90;4.57;;;;;;;15.16;69.68;100758.28;5045087;28;20208;-75
2023/01/01 05:16:22;;;;;;;13.97;3.97;;;;;;;15.24;68.65;100775.47;5040130;28;20189;-75
2023/01/01 05:18:48;;;;;;;12.03;4.07;;;;;;;15.29;67.77;100766.00;5045339;28;20205;-75
2023/01/01 05:21:16;;;;;;;11.07;4.10;;;;;;;15.34;67.25;100771.22;5037516;28;20260;-75
2023/01/01 05:23:42;;;;;;;10.20;4.37;;;;;;;15.38;66.10;100758.28;5049388;28;20605;-75
2023/01/01 05:26:19;;;;;;;13.33;3.97;;;;;;;15.38;66.60;100749.69;5045922;28;20281;-75
2023/01/01 05:28:47;;;;;;;10.23;3.77;;;;;;;15.38;65.78;100760.88;5027990;28;20232;-75
2023/01/01 05:31:15;;;;;;;10.63;4.03;;;;;;;15.37;66.61;100755.72;5047300;28;20226;-75
2023/01/01 05:33:40;;;;;;;8.80;3.63;;;;;;;15.42;65.50;100744.53;5044184;28;20197;-76
2023/01/01 05:36:08;;;;;;;10.33;3.57;;;;;;;15.40;65.96;100747.97;5041576;28;20201;-75
2023/01/01 05:38:34;;;;;;;8.20;3.60;;;;;;;15.38;65.92;100754.88;5046303;28;20704;-75
2023/01/01 05:41:05;;;;;;;8.83;3.30;;;;;;;15.36;66.41;100766.88;5046018;28;21021;-75
2023/01/01 05:43:31;;;;;;;9.37;3.33;;;;;;;15.46;64.96;100772.03;5042383;28;20237;-75
2023/01/01 05:46:05;;;;;;;6.93;3.47;;;;;;;15.46;65.28;100778.91;5031366;28;20625;-75
2023/01/01 05:48:31;;;;;;;6.47;3.90;;;;;;;15.50;64.94;100775.47;5044697;28;20209;-75
2023/01/01 05:51:18;;;;;;;9.40;3.87;;;;;;;15.46;64.59;100795.28;5048224;28;20232;-75
2023/01/01 05:53:43;;;;;;;8.30;3.40;;;;;;;15.54;64.00;100787.50;5043886;28;20190;-75
2023/01/01 05:56:10;;;;;;;10.70;3.80;;;;;;;15.55;64.10;100768.56;5047254;28;20627;-75
2023/01/01 05:58:36;;;;;;;6.97;3.50;;;;;;;15.56;63.34;100788.38;5033183;28;20254;-74
2023/01/01 06:01:09;;;;;;;10.13;3.60;;;;;;;15.58;63.78;100786.66;5043093;28;20210;-75
2023/01/01 06:03:35;;;;;;;9.07;3.20;;;;;;;15.54;63.80;100787.50;5044539;28;20198;-74
2023/01/01 06:06:09;;;;;;;8.47;3.47;;;;;;;15.49;63.96;100784.09;5045276;28;20186;-74
2023/01/01 06:08:34;;;;;;;6.40;3.40;;;;;;;15.66;62.90;100803.84;5040535;28;20868;-74
2023/01/01 06:11:02;;;;;;;9.47;3.60;;;;;;;15.60;63.49;100797.81;5045295;28;20225;-74
2023/01/01 06:13:28;;;;;;;8.23;3.77;;;;;;;15.55;63.48;100809.88;5046414;28;20230;-75
2023/01/01 06:15:57;;;;;;;6.23;3.50;;;;;;;15.47;64.28;100825.38;5047105;28;20205;-73
2023/01/01 06:18:24;;;;;;;8.97;4.03;;;;;;;15.57;62.22;100816.75;5040313;28;20183;-74
2023/01/01 06:20:51;;;;;;;11.73;3.90;;;;;;;15.55;63.09;100826.25;5039439;28;20296;-74
2023/01/01 06:23:16;;;;;;;5.27;3.03;;;;;;;15.52;62.99;100815.91;5044447;28;20201;-74
2023/01/01 06:25:41;;;;;;;7.97;3.60;;;;;;;15.63;61.67;100826.22;5045597;28;20205;-74
2023/01/01 06:28:07;;;;;;;5.93;2.90;;;;;;;15.59;61.86;100821.91;5055415;28;20212;-75
2023/01/01 06:30:33;;;;;;;6.87;3.13;;;;;;;15.52;62.08;100817.66;5049765;28;20250;-73
2023/01/01 06:32:59;;;;;;;6.67;3.10;;;;;;;15.58;62.32;100825.38;5042957;28;20296;-73
2023/01/01 06:35:26;;;;;;;6.27;2.97;;;;;;;15.50;62.11;100852.91;5046804;28;20297;-74
2023/01/01 06:37:51;;;;;;;7.17;2.93;;;;;;;15.46;62.87;100858.91;5044452;28;20272;-74
2023/01/01 06:40:16;;;;;;;6.90;2.80;;;;;;;15.61;61.24;100851.19;5038195;28;20312;-74
2023/01/01 06:42:42;;;;;;;9.40;3.00;;;;;;;15.52;61.79;100844.28;5039199;28;20289;-74
2023/01/01 06:45:08;;;;;;;8.33;2.93;;;;;;;15.49;61.96;100857.22;5048448;28;20186;-74
2023/01/01 06:47:34;;;;;;;8.93;2.83;;;;;;;15.46;62.30;100853.75;5049959;28;20643;-74
2023/01/01 06:50:00;;;;;;;6.90;2.90;;;;;;;15.44;61.87;100846.03;5042697;28;20214;-74
2023/01/01 06:52:26;;;;;;;7.07;2.57;;;;;;;15.41;62.35;100861.53;5045028;28;20682;-74
2023/01/01 06:54:51;;;;;;;9.73;2.90;;;;;;;15.50;61.40;100852.91;5044721;28;20197;-74
2023/01/01 06:57:17;;;;;;;9.47;3.50;;;;;;;15.52;60.75;100852.03;5027175;28;20295;-74
2023/01/01 06:59:42;;;;;;;5.67;2.90;;;;;;;15.49;61.41;100858.94;5042834;28;20206;-74
2023/01/01 07:02:10;;;;;;;8.17;2.93;;;;;;;15.43;62.08;100853.78;5048531;28;20856;-75
2023/01/01 07:04:36;;;;;;;5.37;2.50;;;;;;;15.43;61.88;100872.69;5026145;28;20253;-74
2023/01/01 07:07:01;;;;;;;8.70;2.70;;;;;;;15.46;61.72;100889.91;5045402;28;20185;-75
2023/01/01 07:09:27;;;;;;;8.70;2.87;;;;;;;15.41;61.30;100886.44;5042104;28;20218;-75
2023/01/01 07:11:52;;;;;;;6.53;2.70;;;;;;;15.42;61.31;100877.88;5026709;28;20200;-74
2023/01/01 07:14:17;;;;;;;8.47;2.73;;;;;;;15.45;60.79;100888.19;5043042;28;20189;-75
2023/01/01 07:16:43;;;;;;;10.47;2.70;;;;;;;15.38;61.81;100871.84;5027201;28;21132;-75
2023/01/01 07:19:08;;;;;;;6.03;2.60;;;;;;;15.33;62.05;100862.34;5026842;28;20194;-74
2023/01/01 07:22:03;;;;;;;8.40;3.37;;;;;;;15.34;62.24;100877.00;5041596;28;20281;-75
2023/01/01 07:24:29;;;;;;;7.43;2.83;;;;;;;15.30;62.40;100867.50;5023117;28;20208;-75
2023/01/01 07:26:54;;;;;;;8.73;3.20;;;;;;;15.28;62.08;100857.19;5024524;28;20293;-74
2023/01/01 07:29:19;;;;;;;11.03;3.47;;;;;;;15.29;61.59;100871.78;5045160;28;20209;-75
2023/01/01 07:31:45;;;;;;;7.60;3.17;;;;;;;15.24;62.31;100886.41;5021881;28;20216;-75
2023/01/01 07:34:17;;;;;;;6.67;2.80;;;;;;;15.20;62.21;100886.41;5039849;28;20190;-77
2023/01/01 07:36:43;;;;;;;6.97;3.20;;;;;;;15.17;62.61;100909.63;5042070;28;20292;-74
2023/01/01 07:39:09;;;;;;;6.57;3.23;;;;;;;15.17;62.12;100907.91;5041770;28;20185;-74
2023/01/01 07:41:35;;;;;;;6.53;2.97;;;;;;;15.13;62.63;100910.47;5041237;28;20252;-75
2023/01/01 07:44:01;;;;;;;10.03;3.30;;;;;;;15.11;62.40;100917.34;5024111;28;20205;-74
2023/01/01 07:46:26;;;;;;;4.77;2.60;;;;;;;15.10;62.08;100913.06;5044271;28;20800;-74
2023/01/01 07:48:52;;;;;;;5.17;2.70;;;;;;;15.14;61.87;100917.38;5033932;28;20256;-75
2023/01/01 07:51:17;;;;;;;4.63;2.47;;;;;;;15.10;62.84;100929.38;5051618;28;20233;-74
2023/01/01 07:53:43;;;;;;;7.70;2.70;;;;;;;15.08;61.49;100943.13;5047032;28;20205;-74
2023/01/01 07:56:08;;;;;;;5.47;2.30;;;;;;;15.02;62.75;100938.84;5034455;28;20248;-75
2023/01/01 07:58:38;;;;;;;5.87;2.57;;;;;;;15.03;62.56;100939.69;5028113;28;20243;-74
2023/01/01 08:01:03;;;;;;;4.60;2.20;;;;;;;15.05;62.42;100953.47;5028022;28;20244;-77
2023/01/01 08:03:29;;;;;;;8.93;2.63;;;;;;;14.98;63.18;100938.81;5050739;28;20660;-77
2023/01/01 08:05:54;;;;;;;8.73;2.37;;;;;;;14.96;62.97;100948.28;5029809;28;20603;-76
2023/01/01 08:08:19;;;;;;;4.63;2.30;;;;;;;14.94;63.11;100949.97;5046382;28;20232;-76
2023/01/01 08:10:45;;;;;;;7.43;2.30;;;;;;;14.92;63.11;100956.84;5039310;28;20218;-76
2023/01/01 08:13:10;;;;;;;10.10;2.33;;;;;;;14.91;64.26;100952.56;5032692;28;20942;-75
2023/01/01 08:15:36;;;;;;;4.87;1.80;;;;;;;14.96;63.38;100967.16;5046030;28;20228;-75
2023/01/01 08:18:04;;;;;;;5.03;2.20;;;;;;;14.94;63.58;100981.78;5044662;28;20256;-75
2023/01/01 08:20:30;;;;;;;7.37;2.00;;;;;;;14.99;63.19;100987.81;5043777;28;20218;-75
2023/01/01 08:22:56;;;;;;;4.97;1.97;;;;;;;15.00;63.63;100994.69;5043401;28;20198;-75
2023/01/01 08:25:21;;;;;;;6.33;2.67;;;;;;;15.00;63.35;100996.41;5042972;28;20194;-75
2023/01/01 08:27:47;;;;;;;6.00;1.83;;;;;;;15.03;62.92;101019.63;5045412;28;20216;-75
2023/01/01 08:30:14;;;;;;;5.40;2.20;;;;;;;15.09;63.20;101006.75;5044051;28;20216;-75
2023/01/01 08:32:40;;;;;;;4.90;2.03;;;;;;;15.05;63.04;101016.19;5040144;28;20315;-76
2023/01/01 08:35:05;;;;;;;7.30;2.30;;;;;;;15.04;64.01;101023.94;5051267;28;20317;-75
2023/01/01 08:37:31;;;;;;;6.00;1.90;;;;;;;14.99;64.24;101015.31;5026668;28;20190;-74
2023/01/01 08:39:56;;;;;;;7.20;2.10;;;;;;;15.02;64.87;101025.66;5043239;28;20786;-75
2023/01/01 08:42:24;;;;;;;7.90;2.00;;;;;;;15.00;64.94;101037.66;5049559;28;20213;-74
2023/01/01 08:44:49;;;;;;;8.63;2.37;;;;;;;15.00;65.16;101041.13;5048881;28;20350;-75
2023/01/01 08:47:19;;;;;;;5.33;2.00;;;;;;;15.04;64.09;101050.59;5027595;28;20623;-75
2023/01/01 08:49:45;;;;;;;6.00;1.80;;;;;;;14.98;63.54;101049.72;5029604;28;20218;-74
2023/01/01 08:52:10;;;;;;;3.73;1.57;;;;;;;14.98;62.82;101042.84;5036771;28;20240;-74
2023/01/01 08:54:35;;;;;;;5.63;2.00;;;;;;;15.02;61.16;101062.63;5050933;28;20786;-73
2023/01/01 08:57:01;;;;;;;3.70;1.50;;;;;;;15.02;60.87;101046.28;5053599;28;20270;-74
2023/01/01 08:59:26;;;;;;;4.17;1.57;;;;;;;14.95;61.31;101053.13;5055500;28;20217;-75
2023/01/01 09:01:52;;;;;;;3.43;1.33;;;;;;;14.97;60.59;101063.47;5033436;28;20225;-74
2023/01/01 09:04:17;;;;;;;3.87;1.30;;;;;;;14.97;60.98;101063.47;5042419;28;20551;-75
2023/01/01 09:06:43;;;;;;;3.83;1.20;;;;;;;14.95;61.03;101062.56;5042225;28;20209;-75
2023/01/01 09:09:08;;;;;;;5.07;1.67;;;;;;;14.88;61.89;101072.00;5033004;28;20224;-74
2023/01/01 09:11:33;;;;;;;4.13;1.67;;;;;;;14.88;62.10;101078.88;5042099;28;20198;-75
2023/01/01 09:14:00;;;;;;;3.87;1.60;;;;;;;14.88;62.90;101090.03;5043487;28;20221;-75
2023/01/01 09:16:26;;;;;;;4.27;1.57;;;;;;;14.96;61.92;101097.84;5017492;28;20236;-75
2023/01/01 09:18:52;;;;;;;5.80;1.87;;;;;;;14.91;62.80;101105.53;5043400;28;20217;-75
2023/01/01 09:21:17;;;;;;;5.10;1.50;;;;;;;14.91;63.08;101115.00;5046661;28;20210;-75
2023/01/01 09:23:43;;;;;;;5.03;1.70;;;;;;;14.94;62.54;101102.13;5049732;28;20194;-75
2023/01/01 09:26:09;;;;;;;5.30;1.87;;;;;;;15.01;63.28;101109.06;5050309;28;20247;-75
2023/01/01 09:28:36;;;;;;;4.13;1.70;;;;;;;15.07;63.08;101106.50;5052359;28;20214;-74
2023/01/01 09:31:03;;;;;;;6.20;1.70;;;;;;;15.16;63.41;101110.00;5044484;28;20213;-74
2023/01/01 09:33:29;;;;;;;3.10;1.70;;;;;;;15.05;62.70;101127.13;5049317;28;20268;-75
2023/01/01 09:35:54;;;;;;;4.70;2.10;;;;;;;15.03;62.82;101117.66;5038430;28;20699;-74
2023/01/01 09:38:20;;;;;;;3.73;1.80;;;;;;;15.04;62.99;101148.63;5054708;28;20174;-75
2023/01/01 09:41:04;;;;;;;6.67;2.43;;;;;;;15.08;63.89;101144.31;5045879;28;20590;-73
2023/01/01 09:43:53;;;;;;;4.87;2.43;;;;;;;15.14;64.04;101147.81;5044989;28;20208;-75
2023/01/01 09:46:18;;;;;;;5.10;1.67;;;;;;;15.28;64.31;101147.91;5039544;28;20560;-74
2023/01/01 09:48:55;;;;;;;4.37;2.13;;;;;;;15.34;63.58;101153.13;5046961;28;20209;-75
2023/01/01 09:51:23;;;;;;;9.00;2.40;;;;;;;15.33;64.27;101153.94;5040911;28;20248;-76
2023/01/01 09:53:54;;;;;;;3.33;1.97;;;;;;;15.25;64.26;101161.66;5042675;28;20209;-75
2023/01/01 09:56:26;;;;;;;5.23;1.80;;;;;;;15.02;64.92;101172.66;5040684;28;20284;-75
2023/01/01 09:58:54;;;;;;;3.67;1.63;;;;;;;14.88;65.21;101164.81;5023321;28;20201;-75
2023/01/01 10:01:46;;;;;;;11.00;1.80;;;;;;;14.88;65.51;101182.03;5045003;28;20217;-75
2023/01/01 10:04:11;;;;;;;5.47;2.10;;;;;;;14.87;65.24;101168.25;5038293;28;20296;-75
2023/01/01 10:06:47;;;;;;;4.07;1.63;;;;;;;14.85;65.18;101184.56;5025714;28;20277;-75
2023/01/01 10:09:50;;;;;;;6.17;2.07;;;;;;;14.84;64.71;101178.56;5046128;28;20853;-75
2023/01/01 10:12:24;;;;;;;4.77;1.83;;;;;;;14.82;64.81;101185.41;5037104;28;20817;-75
2023/01/01 10:15:00;;;;;;;3.60;1.70;;;;;;;14.81;64.72;101203.44;5048356;28;20239;-75
2023/01/01 10:17:30;;;;;;;3.33;1.40;;;;;;;14.80;64.32;101200.03;5047752;28;20308;-73
2023/01/01 10:20:00;;;;;;;7.67;1.67;;;;;;;14.79;65.28;101212.91;5039902;28;20222;-74
2023/01/01 10:22:41;;;;;;;5.00;1.60;;;;;;;14.83;62.83;101199.19;5047634;28;20201;-75
2023/01/01 10:25:24;;;;;;;5.63;2.07;;;;;;;14.82;63.66;101200.03;5044908;28;20658;-75
2023/01/01 10:27:57;;;;;;;3.73;1.60;;;;;;;14.87;62.52;101190.63;5044521;28;20252;-74
2023/01/01 10:30:23;;;;;;;4.37;1.33;;;;;;;14.89;62.24;101205.25;5030059;28;20593;-74
2023/01/01 10:32:51;;;;;;;4.90;1.70;;;;;;;14.88;61.91;101212.97;5044034;28;20197;-75
2023/01/01 10:35:21;;;;;;;4.57;1.50;;;;;;;14.83;61.77;101207.75;5046360;28;20229;-75
2023/01/01 10:37:48;;;;;;;6.73;1.33;;;;;;;14.81;60.43;101209.47;5040901;28;20964;-76
2023/01/01 10:40:21;;;;;;;3.83;1.20;;;;;;;14.83;60.88;101199.19;5044444;28;20214;-73
2023/01/01 10:42:51;;;;;;;6.27;1.33;;;;;;;14.83;59.12;101219.81;5040211;28;20679;-75
2023/01/01 10:45:31;;;;;;;3.80;1.70;;;;;;;14.83;59.18;101210.34;5038030;28;20643;-75
2023/01/01 10:48:17;;;;;;;2.43;0.93;;;;;;;14.83;59.16;101204.34;5043987;28;20217;-74
2023/01/01 10:50:53;;;;;;;2.40;1.03;;;;;;;14.86;59.45;101199.19;5039576;28;20602;-74
2023/01/01 10:53:26;;;;;;;6.00;1.40;;;;;;;14.91;59.18;101213.84;5045620;28;20185;-74
2023/01/01 10:56:16;;;;;;;3.87;1.63;;;;;;;15.02;57.28;101214.81;5046796;28;20277;-75
2023/01/01 10:58:57;;;;;;;4.83;1.27;;;;;;;15.27;56.42;101221.84;5033735;28;20233;-75
2023/01/01 11:01:28;;;;;;;5.13;1.33;;;;;;;15.38;54.94;101220.22;5042352;28;20224;-75
2023/01/01 11:03:59;;;;;;;3.77;1.00;;;;;;;15.52;55.07;101221.16;5043791;28;20190;-75
2023/01/01 11:06:46;;;;;;;3.33;1.43;;;;;;;15.47;54.77;101214.28;5048793;28;20208;-75
2023/01/01 11:09:20;;;;;;;2.73;1.17;;;;;;;15.63;54.09;101210.91;5044435;28;20232;-75
2023/01/01 11:11:53;;;;;;;3.23;1.30;;;;;;;18.84;47.12;101195.72;5044996;28;20255;-75
2023/01/01 11:14:20;;;;;;;3.60;1.13;;;;;;;18.62;46.72;101219.25;5025376;28;20190;-74
2023/01/01 11:16:47;;;;;;;4.93;1.00;;;;;;;18.15;46.29;101227.28;5043830;28;20209;-73
2023/01/01 11:19:32;;;;;;;3.53;1.23;;;;;;;16.34;50.17;101224.94;5045602;28;20194;-72
2023/01/01 11:21:59;;;;;;;4.73;1.20;;;;;;;17.25;47.90;101244.84;5047317;28;20190;-76
2023/01/01 11:24:26;;;;;;;6.33;1.53;;;;;;;18.13;47.00;101222.97;5046467;28;20242;-77
2023/01/01 11:27:10;;;;;;;3.27;1.07;;;;;;;19.09;44.66;101210.22;5025885;28;20229;-75
2023/01/01 11:29:36;;;;;;;4.17;1.20;;;;;;;18.40;45.36;101228.06;5041918;28;20619;-76
2023/01/01 11:32:07;;;;;;;3.03;1.07;;;;;;;18.40;45.77;101228.94;5049726;28;20216;-73
2023/01/01 11:34:42;;;;;;;3.80;1.30;;;;;;;17.71;46.76;101238.72;5047616;28;20567;-73
2023/01/01 11:37:14;;;;;;;3.50;1.13;;;;;;;17.75;46.30;101254.25;5042684;28;20189;-75
2023/01/01 11:39:46;;;;;;;4.47;1.07;;;;;;;17.59;46.56;101265.53;5049027;28;20308;-79
2023/01/01 11:42:22;;;;;;;1.80;0.90;;;;;;;17.40;46.80;101252.63;5030014;28;20197;-78